sensor_id;sensor_type;location;lat;lon;timestamp;pressure;altitude;pressure_sealevel;temperature;humidity
71059;BME280;70265;47.576;19.270;2023-05-24T00:01:01;98638.28;;;15.39;100.00
71059;BME280;70265;47.576;19.270;2023-05-24T00:02:03;98630.34;;;15.39;100.00
71059;BME280;70265;47.576;19.270;2023-05-24T00:03:07;98631.19;;;15.39;100.00
71059;BME280;70265;47.576;19.270;2023-05-24T00:04:08;98627.94;;;15.37;100.00
71059;BME280;70265;47.576;19.270;2023-05-24T00:05:14;98625.91;;;15.39;100.00
71059;BME280;70265;47.576;19.270;2023-05-24T00:06:16;98628.97;;;15.43;100.00
71059;BME280;70265;47.576;19.270;2023-05-24T00:07:20;98628.81;;;15.44;100.00
71059;BME280;70265;47.576;19.270;2023-05-24T00:08:21;98629.59;;;15.45;100.00
71059;BME280;70265;47.576;19.270;2023-05-24T00:09:24;98636.28;;;15.41;100.00
71059;BME280;70265;47.576;19.270;2023-05-24T00:10:26;98632.00;;;15.40;100.00
71059;BME280;70265;47.576;19.270;2023-05-24T00:11:30;98639.31;;;15.38;100.00
71059;BME280;70265;47.576;19.270;2023-05-24T00:12:34;98633.81;;;15.39;100.00
71059;BME280;70265;47.576;19.270;2023-05-24T00:13:38;98634.66;;;15.40;100.00
71059;BME280;70265;47.576;19.270;2023-05-24T00:14:39;98631.75;;;15.35;100.00
71059;BME280;70265;47.576;19.270;2023-05-24T00:15:43;98638.66;;;15.36;100.00
71059;BME280;70265;47.576;19.270;2023-05-24T00:16:44;98633.22;;;15.37;100.00
71059;BME280;70265;47.576;19.270;2023-05-24T00:17:48;98635.84;;;15.37;100.00
71059;BME280;70265;47.576;19.270;2023-05-24T00:18:49;98623.75;;;15.28;100.00
71059;BME280;70265;47.576;19.270;2023-05-24T00:19:54;98634.53;;;15.26;100.00
71059;BME280;70265;47.576;19.270;2023-05-24T00:20:55;98627.41;;;15.27;100.00
71059;BME280;70265;47.576;19.270;2023-05-24T00:21:59;98628.41;;;15.26;100.00
71059;BME280;70265;47.576;19.270;2023-05-24T00:23:00;98627.16;;;15.22;100.00
71059;BME280;70265;47.576;19.270;2023-05-24T00:24:04;98623.69;;;15.21;100.00
71059;BME280;70265;47.576;19.270;2023-05-24T00:25:07;98615.59;;;15.23;100.00
71059;BME280;70265;47.576;19.270;2023-05-24T00:26:11;98616.78;;;15.20;100.00
71059;BME280;70265;47.576;19.270;2023-05-24T00:27:12;98618.78;;;15.18;100.00
71059;BME280;70265;47.576;19.270;2023-05-24T00:28:18;98619.97;;;15.16;100.00
71059;BME280;70265;47.576;19.270;2023-05-24T00:29:20;98617.94;;;15.18;100.00
71059;BME280;70265;47.576;19.270;2023-05-24T00:30:24;98613.44;;;15.12;100.00
71059;BME280;70265;47.576;19.270;2023-05-24T00:31:25;98619.97;;;15.16;100.00
71059;BME280;70265;47.576;19.270;2023-05-24T00:32:29;98613.63;;;15.10;100.00
71059;BME280;70265;47.576;19.270;2023-05-24T00:33:30;98614.63;;;15.09;100.00
71059;BME280;70265;47.576;19.270;2023-05-24T00:34:34;98612.59;;;15.11;100.00
71059;BME280;70265;47.576;19.270;2023-05-24T00:35:35;98618.72;;;15.12;100.00
71059;BME280;70265;47.576;19.270;2023-05-24T00:36:39;98614.03;;;15.14;100.00
71059;BME280;70265;47.576;19.270;2023-05-24T00:37:40;98614.03;;;15.14;100.00
71059;BME280;70265;47.576;19.270;2023-05-24T00:38:45;98615.44;;;15.10;100.00
71059;BME280;70265;47.576;19.270;2023-05-24T00:39:46;98616.28;;;15.10;100.00
71059;BME280;70265;47.576;19.270;2023-05-24T00:40:50;98617.06;;;15.11;100.00
71059;BME280;70265;47.576;19.270;2023-05-24T00:41:51;98615.69;;;15.15;100.00
71059;BME280;70265;47.576;19.270;2023-05-24T00:42:55;98615.50;;;15.16;100.00
71059;BME280;70265;47.576;19.270;2023-05-24T00:43:58;98605.88;;;15.09;100.00
71059;BME280;70265;47.576;19.270;2023-05-24T00:45:03;98616.63;;;15.07;100.00
71059;BME280;70265;47.576;19.270;2023-05-24T00:46:15;98603.06;;;15.10;100.00
71059;BME280;70265;47.576;19.270;2023-05-24T00:47:22;98605.06;;;15.08;100.00
71059;BME280;70265;47.576;19.270;2023-05-24T00:48:23;98604.06;;;15.09;100.00
71059;BME280;70265;47.576;19.270;2023-05-24T00:49:28;98602.84;;;15.12;100.00
71059;BME280;70265;47.576;19.270;2023-05-24T00:50:29;98604.28;;;15.14;100.00
71059;BME280;70265;47.576;19.270;2023-05-24T00:51:34;98600.28;;;15.18;100.00
71059;BME280;70265;47.576;19.270;2023-05-24T00:52:36;98594.16;;;15.18;100.00
71059;BME280;70265;47.576;19.270;2023-05-24T00:53:40;98597.47;;;15.20;100.00
71059;BME280;70265;47.576;19.270;2023-05-24T00:54:42;98601.72;;;15.21;100.00
71059;BME280;70265;47.576;19.270;2023-05-24T00:55:46;98600.09;;;15.20;100.00
71059;BME280;70265;47.576;19.270;2023-05-24T00:56:47;98605.38;;;15.20;100.00
71059;BME280;70265;47.576;19.270;2023-05-24T00:57:51;98605.19;;;15.21;100.00
71059;BME280;70265;47.576;19.270;2023-05-24T00:58:54;98607.66;;;15.23;100.00
71059;BME280;70265;47.576;19.270;2023-05-24T01:00:02;98608.22;;;15.18;100.00
71059;BME280;70265;47.576;19.270;2023-05-24T01:01:04;98610.22;;;15.16;100.00
71059;BME280;70265;47.576;19.270;2023-05-24T01:02:08;98614.88;;;15.14;100.00
71059;BME280;70265;47.576;19.270;2023-05-24T01:03:09;98605.13;;;15.15;100.00
71059;BME280;70265;47.576;19.270;2023-05-24T01:04:14;98611.41;;;15.14;100.00
71059;BME280;70265;47.576;19.270;2023-05-24T01:05:17;98607.31;;;15.11;100.00
71059;BME280;70265;47.576;19.270;2023-05-24T01:06:23;98604.69;;;15.11;100.00
71059;BME280;70265;47.576;19.270;2023-05-24T01:07:32;98605.50;;;15.12;100.00
71059;BME280;70265;47.576;19.270;2023-05-24T01:08:54;98609.13;;;15.11;100.00
71059;BME280;70265;47.576;19.270;2023-05-24T01:10:07;98607.69;;;15.08;100.00
71059;BME280;70265;47.576;19.270;2023-05-24T01:11:18;98604.06;;;15.09;100.00
71059;BME280;70265;47.576;19.270;2023-05-24T01:12:28;98605.88;;;15.09;100.00
71059;BME280;70265;47.576;19.270;2023-05-24T01:13:39;98605.25;;;15.07;100.00
71059;BME280;70265;47.576;19.270;2023-05-24T01:14:54;98599.69;;;15.02;100.00
71059;BME280;70265;47.576;19.270;2023-05-24T01:16:08;98604.97;;;15.02;100.00
71059;BME280;70265;47.576;19.270;2023-05-24T01:17:13;98599.69;;;15.02;100.00
71059;BME280;70265;47.576;19.270;2023-05-24T01:18:25;98599.88;;;15.00;100.00
71059;BME280;70265;47.576;19.270;2023-05-24T01:19:54;98601.72;;;15.00;100.00
71059;BME280;70265;47.576;19.270;2023-05-24T01:21:09;98602.00;;;14.90;100.00
71059;BME280;70265;47.576;19.270;2023-05-24T01:22:27;98602.44;;;14.94;100.00
71059;BME280;70265;47.576;19.270;2023-05-24T01:23:42;98606.94;;;14.93;100.00
71059;BME280;70265;47.576;19.270;2023-05-24T01:24:55;98606.13;;;14.93;100.00
71059;BME280;70265;47.576;19.270;2023-05-24T01:26:17;98600.38;;;14.89;100.00
71059;BME280;70265;47.576;19.270;2023-05-24T01:27:26;98605.84;;;14.88;100.00
71059;BME280;70265;47.576;19.270;2023-05-24T01:28:28;98602.38;;;14.87;100.00
71059;BME280;70265;47.576;19.270;2023-05-24T01:29:34;98608.47;;;14.88;100.00
71059;BME280;70265;47.576;19.270;2023-05-24T01:30:36;98608.09;;;14.91;100.00
71059;BME280;70265;47.576;19.270;2023-05-24T01:31:41;98601.00;;;14.91;100.00
71059;BME280;70265;47.576;19.270;2023-05-24T01:32:42;98605.47;;;14.91;100.00
71059;BME280;70265;47.576;19.270;2023-05-24T01:33:46;98600.47;;;14.81;100.00
71059;BME280;70265;47.576;19.270;2023-05-24T01:34:48;98602.94;;;14.83;100.00
71059;BME280;70265;47.576;19.270;2023-05-24T01:35:51;98598.50;;;14.83;100.00
71059;BME280;70265;47.576;19.270;2023-05-24T01:36:52;98600.03;;;14.77;100.00
71059;BME280;70265;47.576;19.270;2023-05-24T01:37:56;98598.38;;;14.76;100.00
71059;BME280;70265;47.576;19.270;2023-05-24T01:38:57;98599.41;;;14.75;100.00
71059;BME280;70265;47.576;19.270;2023-05-24T01:40:01;98602.50;;;14.79;100.00
71059;BME280;70265;47.576;19.270;2023-05-24T01:41:13;98598.03;;;14.80;100.00
71059;BME280;70265;47.576;19.270;2023-05-24T01:42:26;98600.03;;;14.77;100.00
71059;BME280;70265;47.576;19.270;2023-05-24T01:43:36;98597.03;;;14.81;100.00
71059;BME280;70265;47.576;19.270;2023-05-24T01:44:46;98595.56;;;14.78;100.00
71059;BME280;70265;47.576;19.270;2023-05-24T01:45:57;98597.22;;;14.79;100.00
71059;BME280;70265;47.576;19.270;2023-05-24T01:47:13;98600.03;;;14.77;100.00
71059;BME280;70265;47.576;19.270;2023-05-24T01:48:30;98597.03;;;14.81;100.00
71059;BME280;70265;47.576;19.270;2023-05-24T01:49:40;98602.94;;;14.83;100.00
71059;BME280;70265;47.576;19.270;2023-05-24T01:50:47;98597.22;;;14.79;100.00
71059;BME280;70265;47.576;19.270;2023-05-24T01:51:56;98597.97;;;14.73;100.00
71059;BME280;70265;47.576;19.270;2023-05-24T01:53:03;98594.13;;;14.75;100.00
71059;BME280;70265;47.576;19.270;2023-05-24T01:54:09;98593.69;;;14.72;100.00
71059;BME280;70265;47.576;19.270;2023-05-24T01:55:14;98599.13;;;14.70;100.00
71059;BME280;70265;47.576;19.270;2023-05-24T01:56:19;98605.91;;;14.73;100.00
71059;BME280;70265;47.576;19.270;2023-05-24T01:57:22;98596.31;;;14.72;100.00
71059;BME280;70265;47.576;19.270;2023-05-24T01:58:30;98597.16;;;14.72;100.00
71059;BME280;70265;47.576;19.270;2023-05-24T01:59:32;98602.44;;;14.72;100.00
71059;BME280;70265;47.576;19.270;2023-05-24T02:00:38;98596.78;;;14.75;100.00
71059;BME280;70265;47.576;19.270;2023-05-24T02:01:40;98597.84;;;14.81;100.00
71059;BME280;70265;47.576;19.270;2023-05-24T02:02:44;98594.22;;;14.82;100.00
71059;BME280;70265;47.576;19.270;2023-05-24T02:03:45;98592.38;;;14.83;100.00
71059;BME280;70265;47.576;19.270;2023-05-24T02:04:49;98593.38;;;14.82;100.00
71059;BME280;70265;47.576;19.270;2023-05-24T02:05:51;98588.09;;;14.82;100.00
71059;BME280;70265;47.576;19.270;2023-05-24T02:06:54;98596.19;;;14.80;100.00
71059;BME280;70265;47.576;19.270;2023-05-24T02:07:55;98592.94;;;14.78;100.00
71059;BME280;70265;47.576;19.270;2023-05-24T02:08:59;98597.84;;;14.81;100.00
71059;BME280;70265;47.576;19.270;2023-05-24T02:10:01;98595.19;;;14.81;100.00
71059;BME280;70265;47.576;19.270;2023-05-24T02:11:05;98590.56;;;14.83;100.00
71059;BME280;70265;47.576;19.270;2023-05-24T02:12:08;98594.00;;;14.84;100.00
71059;BME280;70265;47.576;19.270;2023-05-24T02:13:12;98591.19;;;14.85;100.00
71059;BME280;70265;47.576;19.270;2023-05-24T02:14:16;98593.66;;;14.87;100.00
71059;BME280;70265;47.576;19.270;2023-05-24T02:15:23;98590.66;;;14.90;100.00
71059;BME280;70265;47.576;19.270;2023-05-24T02:16:24;98592.47;;;14.89;100.00
71059;BME280;70265;47.576;19.270;2023-05-24T02:17:30;98603.47;;;14.93;100.00
71059;BME280;70265;47.576;19.270;2023-05-24T02:18:32;98599.19;;;14.92;100.00
71059;BME280;70265;47.576;19.270;2023-05-24T02:19:36;98593.72;;;14.93;100.00
71059;BME280;70265;47.576;19.270;2023-05-24T02:20:37;98594.72;;;14.92;100.00
71059;BME280;70265;47.576;19.270;2023-05-24T02:21:41;98594.34;;;14.95;100.00
71059;BME280;70265;47.576;19.270;2023-05-24T02:22:42;98589.63;;;14.91;100.00
71059;BME280;70265;47.576;19.270;2023-05-24T02:23:45;98595.72;;;14.91;100.00
71059;BME280;70265;47.576;19.270;2023-05-24T02:24:47;98591.25;;;14.92;100.00
71059;BME280;70265;47.576;19.270;2023-05-24T02:25:50;98593.91;;;14.92;100.00
71059;BME280;70265;47.576;19.270;2023-05-24T02:26:54;98589.00;;;14.89;100.00
71059;BME280;70265;47.576;19.270;2023-05-24T02:27:55;98591.25;;;14.92;100.00
71059;BME280;70265;47.576;19.270;2023-05-24T02:28:59;98590.81;;;14.88;100.00
71059;BME280;70265;47.576;19.270;2023-05-24T02:30:11;98592.47;;;14.89;100.00
71059;BME280;70265;47.576;19.270;2023-05-24T02:31:15;98592.47;;;14.89;100.00
71059;BME280;70265;47.576;19.270;2023-05-24T02:32:16;98588.00;;;14.90;100.00
71059;BME280;70265;47.576;19.270;2023-05-24T02:33:20;98592.84;;;14.86;100.00
71059;BME280;70265;47.576;19.270;2023-05-24T02:34:21;98588.72;;;14.84;100.00
71059;BME280;70265;47.576;19.270;2023-05-24T02:35:25;98584.63;;;14.81;100.00
71059;BME280;70265;47.576;19.270;2023-05-24T02:36:26;98587.47;;;14.80;100.00
71059;BME280;70265;47.576;19.270;2023-05-24T02:37:32;98592.94;;;14.78;100.00
71059;BME280;70265;47.576;19.270;2023-05-24T02:38:33;98583.56;;;14.75;100.00
71059;BME280;70265;47.576;19.270;2023-05-24T02:39:37;98587.22;;;14.74;100.00
71059;BME280;70265;47.576;19.270;2023-05-24T02:40:38;98587.03;;;14.76;100.00
71059;BME280;70265;47.576;19.270;2023-05-24T02:41:42;98590.06;;;14.73;100.00
71059;BME280;70265;47.576;19.270;2023-05-24T02:42:43;98589.47;;;14.77;100.00
71059;BME280;70265;47.576;19.270;2023-05-24T02:43:47;98592.56;;;14.81;100.00
71059;BME280;70265;47.576;19.270;2023-05-24T02:44:48;98582.00;;;14.81;100.00
71059;BME280;70265;47.576;19.270;2023-05-24T02:45:54;98583.81;;;14.81;100.00
71059;BME280;70265;47.576;19.270;2023-05-24T02:46:56;98586.28;;;14.82;100.00
71059;BME280;70265;47.576;19.270;2023-05-24T02:47:59;98585.84;;;14.78;100.00
71059;BME280;70265;47.576;19.270;2023-05-24T02:49:00;98582.53;;;14.76;100.00
71059;BME280;70265;47.576;19.270;2023-05-24T02:50:10;98587.03;;;14.76;100.00
71059;BME280;70265;47.576;19.270;2023-05-24T02:51:11;98582.53;;;14.76;100.00
71059;BME280;70265;47.576;19.270;2023-05-24T02:52:14;98579.91;;;14.76;100.00
71059;BME280;70265;47.576;19.270;2023-05-24T02:53:21;98589.69;;;14.76;100.00
71059;BME280;70265;47.576;19.270;2023-05-24T02:54:24;98589.22;;;14.72;100.00
71059;BME280;70265;47.576;19.270;2023-05-24T02:55:26;98594.88;;;14.69;100.00
71059;BME280;70265;47.576;19.270;2023-05-24T02:56:29;98590.16;;;14.65;100.00
71059;BME280;70265;47.576;19.270;2023-05-24T02:57:30;98591.13;;;14.64;100.00
71059;BME280;70265;47.576;19.270;2023-05-24T02:58:35;98596.25;;;14.65;100.00
71059;BME280;70265;47.576;19.270;2023-05-24T02:59:40;98591.13;;;14.64;100.00
71059;BME280;70265;47.576;19.270;2023-05-24T03:00:43;98595.06;;;14.68;100.00
71059;BME280;70265;47.576;19.270;2023-05-24T03:01:48;98593.84;;;14.70;100.00
71059;BME280;70265;47.576;19.270;2023-05-24T03:02:52;98593.47;;;14.73;100.00
71059;BME280;70265;47.576;19.270;2023-05-24T03:03:53;98601.84;;;14.77;100.00
71059;BME280;70265;47.576;19.270;2023-05-24T03:04:56;98600.84;;;14.78;100.00
71059;BME280;70265;47.576;19.270;2023-05-24T03:05:57;98606.97;;;14.78;100.00
71059;BME280;70265;47.576;19.270;2023-05-24T03:07:01;98599.41;;;14.75;100.00
71059;BME280;70265;47.576;19.270;2023-05-24T03:08:03;98610.59;;;14.77;100.00
71059;BME280;70265;47.576;19.270;2023-05-24T03:09:06;98604.31;;;14.78;100.00
71059;BME280;70265;47.576;19.270;2023-05-24T03:10:08;98605.97;;;14.80;100.00
71059;BME280;70265;47.576;19.270;2023-05-24T03:11:13;98604.78;;;14.82;100.00
71059;BME280;70265;47.576;19.270;2023-05-24T03:12:15;98603.78;;;14.83;100.00
71059;BME280;70265;47.576;19.270;2023-05-24T03:13:18;98604.22;;;14.87;100.00
71059;BME280;70265;47.576;19.270;2023-05-24T03:14:20;98610.75;;;14.91;100.00
71059;BME280;70265;47.576;19.270;2023-05-24T03:15:24;98604.09;;;14.95;100.00
71059;BME280;70265;47.576;19.270;2023-05-24T03:16:26;98606.34;;;14.98;100.00
71059;BME280;70265;47.576;19.270;2023-05-24T03:17:35;98601.72;;;15.00;100.00
71059;BME280;70265;47.576;19.270;2023-05-24T03:18:36;98602.97;;;15.04;100.00
71059;BME280;70265;47.576;19.270;2023-05-24T03:19:40;98600.31;;;15.04;100.00
71059;BME280;70265;47.576;19.270;2023-05-24T03:20:41;98600.31;;;15.04;100.00
71059;BME280;70265;47.576;19.270;2023-05-24T03:21:45;98607.25;;;15.05;100.00
71059;BME280;70265;47.576;19.270;2023-05-24T03:22:46;98599.16;;;15.06;100.00
71059;BME280;70265;47.576;19.270;2023-05-24T03:23:50;98601.16;;;15.04;100.00
71059;BME280;70265;47.576;19.270;2023-05-24T03:24:51;98602.72;;;14.99;100.00
71059;BME280;70265;47.576;19.270;2023-05-24T03:25:55;98595.41;;;15.01;100.00
71059;BME280;70265;47.576;19.270;2023-05-24T03:26:56;98601.16;;;15.04;100.00
71059;BME280;70265;47.576;19.270;2023-05-24T03:28:00;98604.44;;;15.06;100.00
71059;BME280;70265;47.576;19.270;2023-05-24T03:29:02;98595.31;;;15.09;100.00
71059;BME280;70265;47.576;19.270;2023-05-24T03:30:08;98596.94;;;15.10;100.00
71059;BME280;70265;47.576;19.270;2023-05-24T03:31:09;98599.59;;;15.10;100.00
71059;BME280;70265;47.576;19.270;2023-05-24T03:32:13;98597.78;;;15.10;100.00
71059;BME280;70265;47.576;19.270;2023-05-24T03:33:17;98596.75;;;15.11;100.00
71059;BME280;70265;47.576;19.270;2023-05-24T03:34:20;98601.84;;;15.13;100.00
71059;BME280;70265;47.576;19.270;2023-05-24T03:35:21;98601.03;;;15.12;100.00
71059;BME280;70265;47.576;19.270;2023-05-24T03:36:26;98602.47;;;15.15;100.00
71059;BME280;70265;47.576;19.270;2023-05-24T03:37:30;98604.50;;;15.13;100.00
71059;BME280;70265;47.576;19.270;2023-05-24T03:38:31;98601.84;;;15.13;100.00
71059;BME280;70265;47.576;19.270;2023-05-24T03:39:35;98599.84;;;15.15;100.00
71059;BME280;70265;47.576;19.270;2023-05-24T03:40:36;98593.72;;;15.14;100.00
71059;BME280;70265;47.576;19.270;2023-05-24T03:41:40;98598.84;;;15.16;100.00
71059;BME280;70265;47.576;19.270;2023-05-24T03:42:41;98597.84;;;15.17;100.00
71059;BME280;70265;47.576;19.270;2023-05-24T03:43:45;98600.22;;;15.12;100.00
71059;BME280;70265;47.576;19.270;2023-05-24T03:44:46;98602.84;;;15.12;100.00
71059;BME280;70265;47.576;19.270;2023-05-24T03:45:49;98599.84;;;15.15;100.00
71059;BME280;70265;47.576;19.270;2023-05-24T03:46:51;98597.56;;;15.12;100.00
71059;BME280;70265;47.576;19.270;2023-05-24T03:47:54;98591.28;;;15.13;100.00
71059;BME280;70265;47.576;19.270;2023-05-24T03:48:58;98599.22;;;15.13;100.00
71059;BME280;70265;47.576;19.270;2023-05-24T03:50:03;98589.66;;;15.12;100.00
71059;BME280;70265;47.576;19.270;2023-05-24T03:51:07;98594.56;;;15.15;100.00
71059;BME280;70265;47.576;19.270;2023-05-24T03:52:11;98600.84;;;15.14;100.00
71059;BME280;70265;47.576;19.270;2023-05-24T03:53:13;98597.94;;;15.09;100.00
71059;BME280;70265;47.576;19.270;2023-05-24T03:54:16;98598.13;;;15.07;100.00
71059;BME280;70265;47.576;19.270;2023-05-24T03:55:17;98597.34;;;15.07;100.00
71059;BME280;70265;47.576;19.270;2023-05-24T03:56:21;98603.63;;;15.06;100.00
71059;BME280;70265;47.576;19.270;2023-05-24T03:57:22;98595.88;;;15.04;100.00
71059;BME280;70265;47.576;19.270;2023-05-24T03:58:26;98600.69;;;15.01;100.00
71059;BME280;70265;47.576;19.270;2023-05-24T03:59:27;98598.06;;;15.01;100.00
71059;BME280;70265;47.576;19.270;2023-05-24T04:00:31;98596.44;;;15.00;100.00
71059;BME280;70265;47.576;19.270;2023-05-24T04:01:32;98592.97;;;14.99;100.00
71059;BME280;70265;47.576;19.270;2023-05-24T04:02:36;98590.41;;;15.06;100.00
71059;BME280;70265;47.576;19.270;2023-05-24T04:03:37;98594.31;;;15.10;100.00
71059;BME280;70265;47.576;19.270;2023-05-24T04:04:44;98595.13;;;15.10;100.00
71059;BME280;70265;47.576;19.270;2023-05-24T04:05:45;98601.22;;;15.11;100.00
71059;BME280;70265;47.576;19.270;2023-05-24T04:06:49;98605.69;;;15.10;100.00
71059;BME280;70265;47.576;19.270;2023-05-24T04:07:50;98605.69;;;15.10;100.00
71059;BME280;70265;47.576;19.270;2023-05-24T04:08:54;98606.13;;;15.14;100.00
71059;BME280;70265;47.576;19.270;2023-05-24T04:09:56;98612.88;;;15.16;100.00
71059;BME280;70265;47.576;19.270;2023-05-24T04:10:59;98613.50;;;15.18;100.00
71059;BME280;70265;47.576;19.270;2023-05-24T04:12:00;98612.28;;;15.21;100.00
71059;BME280;70265;47.576;19.270;2023-05-24T04:13:06;98619.22;;;15.22;100.00
71059;BME280;70265;47.576;19.270;2023-05-24T04:14:08;98613.75;;;15.23;100.00
71059;BME280;70265;47.576;19.270;2023-05-24T04:15:11;98614.38;;;15.25;100.00
71059;BME280;70265;47.576;19.270;2023-05-24T04:16:14;98614.00;;;15.28;100.00
71059;BME280;70265;47.576;19.270;2023-05-24T04:17:18;98615.81;;;15.28;100.00
71059;BME280;70265;47.576;19.270;2023-05-24T04:18:19;98617.09;;;15.32;100.00
71059;BME280;70265;47.576;19.270;2023-05-24T04:19:23;98617.72;;;15.34;100.00
71059;BME280;70265;47.576;19.270;2023-05-24T04:20:32;98616.09;;;15.33;100.00
71059;BME280;70265;47.576;19.270;2023-05-24T04:21:39;98613.81;;;15.30;100.00
71059;BME280;70265;47.576;19.270;2023-05-24T04:22:40;98616.47;;;15.30;100.00
71059;BME280;70265;47.576;19.270;2023-05-24T04:23:44;98623.75;;;15.28;100.00
71059;BME280;70265;47.576;19.270;2023-05-24T04:24:47;98626.38;;;15.28;100.00
71059;BME280;70265;47.576;19.270;2023-05-24T04:25:49;98626.59;;;15.26;100.00
71059;BME280;70265;47.576;19.270;2023-05-24T04:26:53;98625.22;;;15.31;100.00
71059;BME280;70265;47.576;19.270;2023-05-24T04:27:54;98630.94;;;15.34;100.00
71059;BME280;70265;47.576;19.270;2023-05-24T04:28:58;98633.00;;;15.39;100.00
71059;BME280;70265;47.576;19.270;2023-05-24T04:30:00;98641.59;;;15.41;100.00
71059;BME280;70265;47.576;19.270;2023-05-24T04:31:06;98637.69;;;15.37;100.00
71059;BME280;70265;47.576;19.270;2023-05-24T04:32:08;98642.59;;;15.40;100.00
71059;BME280;70265;47.576;19.270;2023-05-24T04:33:14;98639.50;;;15.36;100.00
71059;BME280;70265;47.576;19.270;2023-05-24T04:34:16;98635.09;;;15.43;100.00
71059;BME280;70265;47.576;19.270;2023-05-24T04:35:21;98637.00;;;15.49;100.00
71059;BME280;70265;47.576;19.270;2023-05-24T04:36:25;98645.19;;;15.54;100.00
71059;BME280;70265;47.576;19.270;2023-05-24T04:37:32;98641.97;;;15.59;100.00
71059;BME280;70265;47.576;19.270;2023-05-24T04:38:33;98645.69;;;15.64;100.00
71059;BME280;70265;47.576;19.270;2023-05-24T04:39:38;98651.00;;;15.64;100.00
71059;BME280;70265;47.576;19.270;2023-05-24T04:40:39;98651.00;;;15.64;100.00
71059;BME280;70265;47.576;19.270;2023-05-24T04:41:44;98651.00;;;15.64;100.00
71059;BME280;70265;47.576;19.270;2023-05-24T04:42:45;98641.66;;;15.68;100.00
71059;BME280;70265;47.576;19.270;2023-05-24T04:43:49;98649.22;;;15.71;100.00
71059;BME280;70265;47.576;19.270;2023-05-24T04:44:50;98646.56;;;15.71;100.00
71059;BME280;70265;47.576;19.270;2023-05-24T04:45:54;98642.53;;;15.75;100.00
71059;BME280;70265;47.576;19.270;2023-05-24T04:46:55;98650.06;;;15.78;100.00
71059;BME280;70265;47.576;19.270;2023-05-24T04:48:00;98649.50;;;15.83;100.00
71059;BME280;70265;47.576;19.270;2023-05-24T04:49:04;98647.56;;;15.92;100.00
71059;BME280;70265;47.576;19.270;2023-05-24T04:50:09;98648.00;;;15.95;100.00
71059;BME280;70265;47.576;19.270;2023-05-24T04:51:10;98644.13;;;15.98;100.00
71059;BME280;70265;47.576;19.270;2023-05-24T04:52:17;98643.13;;;15.99;100.00
71059;BME280;70265;47.576;19.270;2023-05-24T04:53:18;98644.31;;;15.96;100.00
71059;BME280;70265;47.576;19.270;2023-05-24T04:54:22;98648.59;;;15.97;100.00
71059;BME280;70265;47.576;19.270;2023-05-24T04:55:23;98652.25;;;15.96;100.00
71059;BME280;70265;47.576;19.270;2023-05-24T04:56:27;98649.44;;;15.98;100.00
71059;BME280;70265;47.576;19.270;2023-05-24T04:57:28;98653.34;;;16.02;100.00
71059;BME280;70265;47.576;19.270;2023-05-24T04:58:32;98654.94;;;16.03;100.00
71059;BME280;70265;47.576;19.270;2023-05-24T04:59:34;98648.03;;;16.02;100.00
71059;BME280;70265;47.576;19.270;2023-05-24T05:00:38;98653.47;;;15.94;100.00
71059;BME280;70265;47.576;19.270;2023-05-24T05:01:39;98647.78;;;15.97;100.00
71059;BME280;70265;47.576;19.270;2023-05-24T05:02:43;98656.50;;;15.91;100.00
71059;BME280;70265;47.576;19.270;2023-05-24T05:03:44;98649.44;;;15.98;100.00
71059;BME280;70265;47.576;19.270;2023-05-24T05:04:48;98645.69;;;15.92;100.00
71059;BME280;70265;47.576;19.270;2023-05-24T05:05:49;98645.13;;;15.97;100.00
71059;BME280;70265;47.576;19.270;2023-05-24T05:06:53;98648.88;;;16.02;100.00
71059;BME280;70265;47.576;19.270;2023-05-24T05:07:58;98654.72;;;15.98;100.00
71059;BME280;70265;47.576;19.270;2023-05-24T05:09:02;98657.16;;;15.99;100.00
71059;BME280;70265;47.576;19.270;2023-05-24T05:10:05;98657.81;;;16.01;100.00
71059;BME280;70265;47.576;19.270;2023-05-24T05:11:14;98661.09;;;16.10;100.00
71059;BME280;70265;47.576;19.270;2023-05-24T05:12:15;98656.06;;;16.15;100.00
71059;BME280;70265;47.576;19.270;2023-05-24T05:13:19;98666.06;;;16.19;100.00
71059;BME280;70265;47.576;19.270;2023-05-24T05:14:20;98661.03;;;16.24;100.00
71059;BME280;70265;47.576;19.270;2023-05-24T05:15:23;98666.19;;;16.33;100.00
71059;BME280;70265;47.576;19.270;2023-05-24T05:16:25;98660.69;;;16.34;100.00
71059;BME280;70265;47.576;19.270;2023-05-24T05:17:29;98655.94;;;16.29;100.00
71059;BME280;70265;47.576;19.270;2023-05-24T05:18:30;98662.50;;;16.34;100.00
71059;BME280;70265;47.576;19.270;2023-05-24T05:19:34;98664.53;;;16.32;100.00
71059;BME280;70265;47.576;19.270;2023-05-24T05:20:35;98661.31;;;16.36;100.00
71059;BME280;70265;47.576;19.270;2023-05-24T05:21:39;98663.41;;;16.47;100.00
71059;BME280;70265;47.576;19.270;2023-05-24T05:22:44;98658.19;;;16.60;100.00
71059;BME280;70265;47.576;19.270;2023-05-24T05:23:51;98661.97;;;16.79;100.00
71059;BME280;70265;47.576;19.270;2023-05-24T05:24:54;98663.97;;;16.70;100.00
71059;BME280;70265;47.576;19.270;2023-05-24T05:25:57;98661.59;;;16.54;100.00
71059;BME280;70265;47.576;19.270;2023-05-24T05:26:59;98656.38;;;16.61;100.00
71059;BME280;70265;47.576;19.270;2023-05-24T05:28:03;98660.44;;;16.57;100.00
71059;BME280;70265;47.576;19.270;2023-05-24T05:29:04;98665.66;;;16.50;100.00
71059;BME280;70265;47.576;19.270;2023-05-24T05:30:09;98665.94;;;16.55;100.00
71059;BME280;70265;47.576;19.270;2023-05-24T05:31:11;98664.78;;;16.71;100.00